createdAt,value
2022-11-16T00:01:09.624Z,25.40
2022-11-16T00:03:42.445Z,27.00
2022-11-16T00:06:15.654Z,27.40
2022-11-16T00:12:08.995Z,26.30
2022-11-16T00:14:42.342Z,24.90
2022-11-16T00:17:14.542Z,27.00
2022-11-16T00:19:48.234Z,27.80
2022-11-16T00:22:20.341Z,29.10
2022-11-16T00:24:52.944Z,27.20
2022-11-16T00:27:25.160Z,28.60
2022-11-16T00:29:57.360Z,28.90
2022-11-16T00:32:29.827Z,29.50
2022-11-16T00:35:01.991Z,32.20
2022-11-16T00:37:34.962Z,26.60
2022-11-16T00:40:11.599Z,29.90
2022-11-16T00:42:44.084Z,28.70
2022-11-16T00:45:16.357Z,30.10
2022-11-16T00:47:48.565Z,30.60
2022-11-16T00:50:21.911Z,27.40
2022-11-16T00:52:54.274Z,28.80
2022-11-16T00:55:26.727Z,31.00
2022-11-16T00:58:02.538Z,27.40
2022-11-16T01:00:35.017Z,27.10
2022-11-16T01:03:07.995Z,28.00
2022-11-16T01:05:40.522Z,28.30
2022-11-16T01:08:12.881Z,26.60
2022-11-16T01:11:19.166Z,25.50
2022-11-16T01:13:53.751Z,25.00
2022-11-16T01:16:27.097Z,26.50
2022-11-16T01:18:59.355Z,25.20
2022-11-16T01:21:31.845Z,25.70
2022-11-16T01:24:03.984Z,27.80
2022-11-16T01:26:36.194Z,27.20
2022-11-16T01:29:09.174Z,28.40
2022-11-16T01:31:45.492Z,28.30
2022-11-16T01:34:17.987Z,29.10
2022-11-16T01:36:51.508Z,30.20
2022-11-16T01:39:24.346Z,29.40
2022-11-16T01:42:00.153Z,28.30
2022-11-16T01:47:51.263Z,29.10
2022-11-16T01:50:26.124Z,29.90
2022-11-16T01:53:03.547Z,30.70
2022-11-16T01:55:48.410Z,32.00
2022-11-16T01:58:48.392Z,31.80
2022-11-16T02:01:26.951Z,32.30
2022-11-16T02:04:00.651Z,35.10
2022-11-16T02:06:42.568Z,31.50
2022-11-16T02:09:58.285Z,32.10
2022-11-16T02:12:53.504Z,34.40
2022-11-16T02:15:33.178Z,33.60
2022-11-16T02:18:35.827Z,31.20
2022-11-16T02:21:19.023Z,32.50
2022-11-16T02:24:31.413Z,30.50
2022-11-16T02:27:34.437Z,32.30
2022-11-16T02:30:08.643Z,32.30
2022-11-16T02:32:52.439Z,30.10
2022-11-16T02:35:30.146Z,32.60
2022-11-16T02:38:08.423Z,31.50
2022-11-16T02:40:48.699Z,30.40
2022-11-16T02:43:48.321Z,30.50
2022-11-16T02:46:27.284Z,32.10
2022-11-16T02:49:04.774Z,34.10
2022-11-16T02:51:41.183Z,30.00
2022-11-16T02:54:16.951Z,31.10
2022-11-16T02:56:56.592Z,33.40
2022-11-16T02:59:40.531Z,34.20
2022-11-16T03:02:24.057Z,28.80
2022-11-16T03:05:01.027Z,30.80
2022-11-16T03:07:40.070Z,30.50
2022-11-16T03:10:33.919Z,33.10
2022-11-16T03:13:17.717Z,28.20
2022-11-16T03:15:51.999Z,29.30
2022-11-16T03:18:27.440Z,32.50
2022-11-16T03:21:07.441Z,31.10
2022-11-16T03:23:40.023Z,26.80
2022-11-16T03:26:17.789Z,27.20
2022-11-16T03:28:58.913Z,27.90
2022-11-16T03:31:36.015Z,30.50
2022-11-16T03:34:16.262Z,28.90
2022-11-16T03:36:51.590Z,29.00
2022-11-16T03:39:32.601Z,28.80
2022-11-16T03:42:08.544Z,28.60
2022-11-16T03:44:42.037Z,28.40
2022-11-16T03:47:14.975Z,28.20
2022-11-16T03:49:48.869Z,28.50
2022-11-16T03:52:23.123Z,28.00
2022-11-16T03:54:55.450Z,26.60
2022-11-16T03:57:29.060Z,24.20
2022-11-16T04:00:04.126Z,27.60
2022-11-16T04:02:53.233Z,25.10
2022-11-16T04:05:44.303Z,24.80
2022-11-16T04:08:38.068Z,24.60
2022-11-16T04:11:30.129Z,27.50
2022-11-16T04:14:19.982Z,23.40
2022-11-16T04:17:09.976Z,20.70
2022-11-16T04:20:00.091Z,20.60
2022-11-16T04:23:00.599Z,19.40
2022-11-16T04:25:40.208Z,14.50
2022-11-16T04:28:21.158Z,12.50
2022-11-16T04:31:17.120Z,12.70
2022-11-16T04:34:27.694Z,13.90
2022-11-16T04:37:19.812Z,13.60
2022-11-16T04:39:53.134Z,13.60
2022-11-16T04:42:26.356Z,16.50
2022-11-16T04:45:16.298Z,17.10
2022-11-16T04:47:52.992Z,18.00
2022-11-16T04:50:29.028Z,18.90
2022-11-16T04:53:04.813Z,19.40
2022-11-16T04:55:39.796Z,17.40
2022-11-16T04:58:13.041Z,17.70
2022-11-16T05:00:45.444Z,19.00
2022-11-16T05:03:18.192Z,17.80
2022-11-16T05:06:15.936Z,17.40
2022-11-16T05:08:48.032Z,17.50
2022-11-16T05:11:20.374Z,19.10
2022-11-16T05:13:52.863Z,17.50
2022-11-16T05:16:25.184Z,17.20
2022-11-16T05:19:15.756Z,16.60
2022-11-16T05:21:50.355Z,20.70
2022-11-16T05:24:35.511Z,18.90
2022-11-16T05:27:10.894Z,19.20
2022-11-16T05:29:43.672Z,21.00
2022-11-16T05:32:17.269Z,21.80
2022-11-16T05:34:50.186Z,20.60
2022-11-16T05:37:26.369Z,18.60
2022-11-16T05:39:58.615Z,20.80
2022-11-16T05:42:42.274Z,23.40
2022-11-16T05:45:19.819Z,21.60
2022-11-16T05:47:53.346Z,20.70
2022-11-16T05:50:26.965Z,20.40
2022-11-16T05:53:09.541Z,21.10
2022-11-16T05:55:41.675Z,22.60
2022-11-16T05:58:13.828Z,20.80
2022-11-16T06:00:46.926Z,21.90
2022-11-16T06:03:19.990Z,26.90
2022-11-16T06:05:57.873Z,24.10
2022-11-16T06:08:31.690Z,21.30
2022-11-16T06:11:06.931Z,22.40
2022-11-16T06:13:41.114Z,21.00
2022-11-16T06:16:13.724Z,23.80
2022-11-16T06:18:48.620Z,22.70
2022-11-16T06:21:22.128Z,19.40
2022-11-16T06:23:54.462Z,22.70
2022-11-16T06:26:29.370Z,21.10
2022-11-16T06:29:02.118Z,19.40
2022-11-16T06:31:34.592Z,19.10
2022-11-16T06:34:09.906Z,21.10
2022-11-16T06:36:41.991Z,19.60
2022-11-16T06:39:14.847Z,19.60
2022-11-16T06:41:49.319Z,17.80
2022-11-16T06:44:21.688Z,18.90
2022-11-16T06:47:00.437Z,19.60
2022-11-16T06:49:33.322Z,18.10
2022-11-16T06:52:06.873Z,17.30
2022-11-16T06:54:39.173Z,18.70
2022-11-16T06:57:11.687Z,18.10
2022-11-16T06:59:45.248Z,15.20
2022-11-16T07:02:21.421Z,14.20
2022-11-16T07:04:54.791Z,12.60
2022-11-16T07:07:28.428Z,13.10
2022-11-16T07:10:01.667Z,12.00
2022-11-16T07:12:33.876Z,10.50
2022-11-16T07:15:06.977Z,8.60
2022-11-16T07:17:41.120Z,8.20
2022-11-16T07:20:15.472Z,9.20
2022-11-16T07:22:48.983Z,7.70
2022-11-16T07:25:22.424Z,9.10
2022-11-16T07:27:54.593Z,5.90
2022-11-16T07:30:30.232Z,7.20
2022-11-16T07:33:09.344Z,10.50
2022-11-16T07:36:05.617Z,20.40
2022-11-16T07:38:38.549Z,9.30
2022-11-16T07:41:13.605Z,7.50
2022-11-16T07:43:54.484Z,5.50
2022-11-16T07:46:49.116Z,6.20
2022-11-16T07:49:22.310Z,5.70
2022-11-16T07:52:04.637Z,34.60
2022-11-16T07:54:41.670Z,47.70
2022-11-16T07:57:14.057Z,45.50
2022-11-16T07:59:46.824Z,28.00
2022-11-16T08:02:19.004Z,11.00
2022-11-16T08:04:51.729Z,12.50
2022-11-16T08:07:27.708Z,28.10
2022-11-16T08:10:01.272Z,38.30
2022-11-16T08:12:33.681Z,16.80
2022-11-16T08:15:06.675Z,12.60
2022-11-16T08:17:38.964Z,14.30
2022-11-16T08:20:12.978Z,16.60
2022-11-16T08:22:46.312Z,17.00
2022-11-16T08:25:21.134Z,23.50
2022-11-16T08:27:53.348Z,9.50
2022-11-16T08:30:25.909Z,10.50
2022-11-16T08:32:58.336Z,7.50
2022-11-16T08:35:30.942Z,6.70
2022-11-16T08:38:22.636Z,6.40
2022-11-16T08:40:58.139Z,7.30
2022-11-16T08:43:31.135Z,8.50
2022-11-16T08:46:03.623Z,13.50
2022-11-16T08:48:37.055Z,8.70
2022-11-16T08:51:20.412Z,4.50
2022-11-16T08:53:59.996Z,4.70
2022-11-16T08:56:44.073Z,4.20
2022-11-16T08:59:16.944Z,6.90
2022-11-16T09:01:52.668Z,31.30
2022-11-16T09:04:25.218Z,8.60
2022-11-16T09:06:57.499Z,9.10
2022-11-16T09:09:30.477Z,7.30
2022-11-16T09:12:02.748Z,3.50
2022-11-16T09:14:35.019Z,9.20
2022-11-16T09:17:07.257Z,4.80
2022-11-16T09:19:39.552Z,4.40
2022-11-16T09:22:11.822Z,4.90
2022-11-16T09:24:43.990Z,4.50
2022-11-16T09:27:16.933Z,3.30
2022-11-16T09:29:49.193Z,3.20
2022-11-16T09:32:21.368Z,4.70
2022-11-16T09:34:53.860Z,3.50
2022-11-16T09:37:26.002Z,8.60
2022-11-16T09:39:59.235Z,3.70
2022-11-16T09:42:47.160Z,3.50
2022-11-16T09:45:26.348Z,3.70
2022-11-16T09:48:03.061Z,4.60
2022-11-16T09:50:47.496Z,8.00
2022-11-16T09:53:34.022Z,6.40
2022-11-16T09:56:13.712Z,3.80
2022-11-16T09:58:53.459Z,5.30
2022-11-16T10:01:31.028Z,3.00
2022-11-16T10:04:10.978Z,4.30
2022-11-16T10:06:51.627Z,3.40
2022-11-16T10:09:25.876Z,4.50
2022-11-16T10:12:17.286Z,2.80
2022-11-16T10:15:43.585Z,3.30
2022-11-16T10:18:39.667Z,5.60
2022-11-16T10:21:21.659Z,3.10
2022-11-16T10:24:10.825Z,5.80
2022-11-16T10:26:52.062Z,18.80
2022-11-16T10:29:46.529Z,23.40
2022-11-16T10:32:28.310Z,5.80
2022-11-16T10:35:06.298Z,4.90
2022-11-16T10:37:42.220Z,4.40
2022-11-16T10:40:21.827Z,3.90
2022-11-16T10:43:11.736Z,5.00
2022-11-16T10:45:51.564Z,4.70
2022-11-16T10:48:37.390Z,9.10
2022-11-16T10:51:10.878Z,8.20
2022-11-16T10:53:44.941Z,10.50
2022-11-16T10:56:22.305Z,39.00
2022-11-16T10:59:00.456Z,14.70
2022-11-16T11:01:53.583Z,14.40
2022-11-16T11:04:28.546Z,6.50
2022-11-16T11:07:22.416Z,5.00
2022-11-16T11:09:56.741Z,10.50
2022-11-16T11:12:41.650Z,7.70
2022-11-16T11:15:36.164Z,5.90
2022-11-16T11:18:25.743Z,6.30
2022-11-16T11:21:14.394Z,8.30
2022-11-16T11:23:53.928Z,6.00
2022-11-16T11:26:36.623Z,7.30
2022-11-16T11:29:22.394Z,6.60
2022-11-16T11:31:56.864Z,24.20
2022-11-16T11:34:30.978Z,12.00
2022-11-16T11:37:06.281Z,5.20
2022-11-16T11:40:06.795Z,18.20
2022-11-16T11:42:52.281Z,5.10
2022-11-16T11:45:31.767Z,3.90
2022-11-16T11:48:07.618Z,6.20
2022-11-16T11:50:51.245Z,4.80
2022-11-16T11:53:38.906Z,5.70
2022-11-16T11:56:15.022Z,3.40
2022-11-16T11:58:49.468Z,2.80
2022-11-16T12:01:58.963Z,7.20
2022-11-16T12:04:59.604Z,3.70
2022-11-16T12:07:53.120Z,3.70
2022-11-16T12:10:36.246Z,5.30
2022-11-16T12:13:37.987Z,4.30
2022-11-16T12:16:20.153Z,3.70
2022-11-16T12:19:10.796Z,7.20
2022-11-16T12:21:51.862Z,4.70
2022-11-16T12:24:38.150Z,5.40
2022-11-16T12:27:27.076Z,3.60
2022-11-16T12:30:08.172Z,4.90
2022-11-16T12:33:12.504Z,3.20
2022-11-16T12:35:54.908Z,2.90
2022-11-16T12:38:49.586Z,4.10
2022-11-16T12:41:45.519Z,3.50
2022-11-16T12:44:25.939Z,14.80
2022-11-16T12:47:05.542Z,5.90
2022-11-16T12:49:56.871Z,5.10
2022-11-16T12:52:44.992Z,6.70
2022-11-16T12:55:33.942Z,5.00
2022-11-16T12:58:23.356Z,6.50
2022-11-16T13:01:06.836Z,5.30
2022-11-16T13:03:48.063Z,5.50
2022-11-16T13:06:28.473Z,3.50
2022-11-16T13:09:08.688Z,2.90
2022-11-16T13:11:45.352Z,5.20
2022-11-16T13:14:21.396Z,5.90
2022-11-16T13:16:54.868Z,7.70
2022-11-16T13:19:27.709Z,8.80
2022-11-16T13:22:06.348Z,27.70
2022-11-16T13:24:48.600Z,12.20
2022-11-16T13:27:34.830Z,5.20
2022-11-16T13:30:16.497Z,9.00
2022-11-16T13:33:04.737Z,4.90
2022-11-16T13:35:39.227Z,6.50
2022-11-16T13:38:14.179Z,6.10
2022-11-16T13:40:46.559Z,5.50
2022-11-16T13:43:20.810Z,4.70
2022-11-16T13:45:59.524Z,5.90
2022-11-16T13:48:35.874Z,12.10
2022-11-16T13:51:17.342Z,8.00
2022-11-16T13:56:52.199Z,5.90
2022-11-16T13:59:32.580Z,7.80
2022-11-16T14:02:26.696Z,5.50
2022-11-16T14:05:03.406Z,7.40
2022-11-16T14:07:43.238Z,8.50
2022-11-16T14:10:54.859Z,6.10
2022-11-16T14:13:45.663Z,6.80
2022-11-16T14:16:47.671Z,5.10
2022-11-16T14:19:56.282Z,6.40
2022-11-16T14:22:54.393Z,11.50
2022-11-16T14:25:39.228Z,13.30
2022-11-16T14:28:34.362Z,5.20
2022-11-16T14:31:19.342Z,6.10
2022-11-16T14:33:58.250Z,4.30
2022-11-16T14:36:44.056Z,3.00
2022-11-16T14:39:28.299Z,5.60
2022-11-16T14:42:07.290Z,4.00
2022-11-16T14:44:41.648Z,6.10
2022-11-16T14:47:26.536Z,2.90
2022-11-16T14:49:59.286Z,3.70
2022-11-16T14:52:38.034Z,3.30
2022-11-16T14:55:18.780Z,8.90
2022-11-16T14:58:07.292Z,6.70
2022-11-16T15:00:42.357Z,4.90
2022-11-16T15:03:15.773Z,4.60
2022-11-16T15:05:48.025Z,13.10
2022-11-16T15:08:24.222Z,46.70
2022-11-16T15:10:57.603Z,19.80
2022-11-16T15:13:30.546Z,6.10
2022-11-16T15:16:17.256Z,7.10
2022-11-16T15:19:03.680Z,7.20
2022-11-16T15:21:37.957Z,4.70
2022-11-16T15:24:30.395Z,6.90
2022-11-16T15:27:26.746Z,7.10
2022-11-16T15:30:01.376Z,5.40
2022-11-16T15:32:38.826Z,7.00
2022-11-16T15:35:21.202Z,6.70
2022-11-16T15:38:06.342Z,4.60
2022-11-16T15:40:39.395Z,4.70
2022-11-16T15:43:14.688Z,6.10
2022-11-16T15:45:50.440Z,8.10
2022-11-16T15:48:25.428Z,8.10
2022-11-16T15:51:09.405Z,5.90
2022-11-16T15:53:44.531Z,6.20
2022-11-16T15:56:20.732Z,7.70
2022-11-16T15:58:54.256Z,4.80
2022-11-16T16:01:28.387Z,5.00
2022-11-16T16:04:03.740Z,4.50
2022-11-16T16:06:50.615Z,5.40
2022-11-16T16:09:26.979Z,6.90
2022-11-16T16:12:16.607Z,6.60
2022-11-16T16:14:50.323Z,6.80
2022-11-16T16:17:27.870Z,6.50
2022-11-16T16:20:01.797Z,5.80
2022-11-16T16:22:44.386Z,4.90
2022-11-16T16:25:31.640Z,4.20
2022-11-16T16:28:06.043Z,7.20
2022-11-16T16:30:39.442Z,5.70
2022-11-16T16:33:17.365Z,6.00
2022-11-16T16:35:52.965Z,5.70
2022-11-16T16:38:25.187Z,6.10
2022-11-16T16:41:03.138Z,6.80
2022-11-16T16:43:36.565Z,9.30
2022-11-16T16:46:12.439Z,6.40
2022-11-16T16:48:44.908Z,5.30
2022-11-16T16:51:17.393Z,5.90
2022-11-16T16:53:49.698Z,5.30
2022-11-16T16:56:22.355Z,5.40
2022-11-16T16:58:54.912Z,5.00
2022-11-16T17:01:27.358Z,5.00
2022-11-16T17:04:00.586Z,6.30
2022-11-16T17:06:33.626Z,6.80
2022-11-16T17:09:08.098Z,9.50
2022-11-16T17:11:40.452Z,4.50
2022-11-16T17:14:15.533Z,4.20
2022-11-16T17:16:48.766Z,4.70
2022-11-16T17:19:22.932Z,6.20
2022-11-16T17:21:55.553Z,4.70
2022-11-16T17:24:27.924Z,4.40
2022-11-16T17:27:00.281Z,4.90
2022-11-16T17:29:32.788Z,5.20
2022-11-16T17:32:07.473Z,5.00
2022-11-16T17:34:41.730Z,5.90
2022-11-16T17:37:15.102Z,8.60
2022-11-16T17:39:49.091Z,23.20
2022-11-16T17:42:21.761Z,5.60
2022-11-16T17:44:55.230Z,7.00
2022-11-16T17:47:27.892Z,7.10
2022-11-16T17:50:02.103Z,6.10
2022-11-16T17:52:34.844Z,7.00
2022-11-16T17:55:09.995Z,9.10
2022-11-16T17:57:43.503Z,5.80
2022-11-16T18:00:19.624Z,5.70
2022-11-16T18:02:51.829Z,6.20
2022-11-16T18:05:24.274Z,5.70
2022-11-16T18:07:58.108Z,7.60
2022-11-16T18:10:30.230Z,6.00
2022-11-16T18:13:02.599Z,6.80
2022-11-16T18:15:42.191Z,8.10
2022-11-16T18:18:15.294Z,5.40
2022-11-16T18:20:50.879Z,7.90
2022-11-16T18:23:23.416Z,6.70
2022-11-16T18:25:56.254Z,7.40
2022-11-16T18:28:28.989Z,5.30
2022-11-16T18:31:07.621Z,6.40
2022-11-16T18:33:40.843Z,7.20
2022-11-16T18:36:13.841Z,6.30
2022-11-16T18:38:46.838Z,5.90
2022-11-16T18:41:22.021Z,9.10
2022-11-16T18:43:55.894Z,6.40
2022-11-16T18:46:29.892Z,5.10
2022-11-16T18:49:18.308Z,6.30
2022-11-16T18:51:50.575Z,6.10
2022-11-16T18:54:24.338Z,6.70
2022-11-16T18:56:57.742Z,6.00
2022-11-16T18:59:32.186Z,6.80
2022-11-16T19:02:05.116Z,7.30
2022-11-16T19:04:40.384Z,6.20
2022-11-16T19:07:14.319Z,6.50
2022-11-16T19:09:49.596Z,6.50
2022-11-16T19:12:22.403Z,6.20
2022-11-16T19:14:56.848Z,7.80
2022-11-16T19:17:30.956Z,7.60
2022-11-16T19:20:04.646Z,8.50
2022-11-16T19:22:37.705Z,7.70
2022-11-16T19:25:14.423Z,8.10
2022-11-16T19:27:47.272Z,7.40
2022-11-16T19:30:22.254Z,6.30
2022-11-16T19:33:02.233Z,6.00
2022-11-16T19:35:35.180Z,5.30
2022-11-16T19:38:07.388Z,6.90
2022-11-16T19:40:40.999Z,6.10
2022-11-16T19:43:15.618Z,6.30
2022-11-16T19:45:53.841Z,6.70
2022-11-16T19:48:27.340Z,5.70
2022-11-16T19:51:04.760Z,5.70
2022-11-16T19:54:06.721Z,7.30
2022-11-16T19:56:40.404Z,6.30
2022-11-16T19:59:14.768Z,5.60
2022-11-16T20:01:49.205Z,6.50
2022-11-16T20:04:22.798Z,5.10
2022-11-16T20:07:01.316Z,5.20
2022-11-16T20:09:48.183Z,15.40
2022-11-16T20:12:25.584Z,10.80
2022-11-16T20:15:01.688Z,8.20
2022-11-16T20:17:39.478Z,9.60
2022-11-16T20:20:51.046Z,6.60
2022-11-16T20:23:23.640Z,7.80
2022-11-16T20:25:56.760Z,6.90
2022-11-16T20:31:51.969Z,6.50
2022-11-16T20:34:24.797Z,6.30
2022-11-16T20:36:57.435Z,11.80
2022-11-16T20:39:29.901Z,6.10
2022-11-16T20:42:05.945Z,5.90
2022-11-16T20:44:38.180Z,6.20
2022-11-16T20:47:11.222Z,6.20
2022-11-16T20:49:48.792Z,6.50
2022-11-16T20:52:24.960Z,9.30
2022-11-16T20:54:59.085Z,7.20
2022-11-16T20:57:33.485Z,5.60
2022-11-16T21:00:08.912Z,7.00
2022-11-16T21:02:41.133Z,6.20
2022-11-16T21:08:25.314Z,6.70
2022-11-16T21:10:58.398Z,6.80
2022-11-16T21:13:48.232Z,5.90
2022-11-16T21:16:20.919Z,5.20
2022-11-16T21:18:54.256Z,6.40
2022-11-16T21:21:36.457Z,6.60
2022-11-16T21:24:24.952Z,7.00
2022-11-16T21:26:57.158Z,6.50
2022-11-16T21:29:30.490Z,7.00
2022-11-16T21:32:02.914Z,6.80
2022-11-16T21:34:40.002Z,5.70
2022-11-16T21:37:46.969Z,6.50
2022-11-16T21:40:22.892Z,6.20
2022-11-16T21:42:55.505Z,5.20
2022-11-16T21:45:30.103Z,6.80
2022-11-16T21:48:35.680Z,6.60
2022-11-16T21:51:10.201Z,6.80
2022-11-16T21:53:42.606Z,7.90
2022-11-16T21:56:16.731Z,5.90
2022-11-16T21:58:50.533Z,7.30
2022-11-16T22:01:24.286Z,6.10
2022-11-16T22:04:17.069Z,6.90
2022-11-16T22:07:10.239Z,6.50
2022-11-16T22:09:42.558Z,4.70
2022-11-16T22:12:14.717Z,6.80
2022-11-16T22:14:46.845Z,5.70
2022-11-16T22:17:19.168Z,7.00
2022-11-16T22:19:51.310Z,5.40
2022-11-16T22:22:23.562Z,6.10
2022-11-16T22:24:55.953Z,4.90
2022-11-16T22:27:28.496Z,5.80
2022-11-16T22:30:00.642Z,7.10
2022-11-16T22:32:32.787Z,5.40
2022-11-16T22:35:07.556Z,6.10
2022-11-16T22:37:39.863Z,5.80
2022-11-16T22:40:31.252Z,6.80
2022-11-16T22:43:06.898Z,6.10
2022-11-16T22:45:41.180Z,5.80
2022-11-16T22:48:13.309Z,5.70
2022-11-16T22:50:45.475Z,5.50
2022-11-16T22:53:17.698Z,6.40
2022-11-16T22:55:50.058Z,5.80
2022-11-16T22:58:24.619Z,6.00
2022-11-16T23:00:57.137Z,5.30
2022-11-16T23:03:29.925Z,5.20
2022-11-16T23:06:02.279Z,4.90
2022-11-16T23:08:35.677Z,5.80
2022-11-16T23:11:27.790Z,5.80
2022-11-16T23:14:18.599Z,5.60
2022-11-16T23:16:51.971Z,5.50
2022-11-16T23:19:42.924Z,4.90
2022-11-16T23:22:37.161Z,5.20
2022-11-16T23:25:29.813Z,4.70
2022-11-16T23:28:06.683Z,5.30
2022-11-16T23:30:39.987Z,5.60
2022-11-16T23:33:13.438Z,5.50
2022-11-16T23:35:45.588Z,5.40
2022-11-16T23:38:17.935Z,5.20
2022-11-16T23:40:50.086Z,5.00
2022-11-16T23:43:39.913Z,5.40
2022-11-16T23:46:14.692Z,5.00
2022-11-16T23:48:46.886Z,5.50
2022-11-16T23:51:19.626Z,5.20
2022-11-16T23:53:52.812Z,5.00
2022-11-16T23:56:28.633Z,4.50
2022-11-16T23:59:00.811Z,6.00
